sensor_id;sensor_type;location;lat;lon;timestamp;temperature;humidity
52513;DHT22;38422;53.172;6.974;2024-03-02T00:01:43;7.40;99.90
52513;DHT22;38422;53.172;6.974;2024-03-02T00:04:09;7.40;99.90
52513;DHT22;38422;53.172;6.974;2024-03-02T00:06:35;7.40;99.90
52513;DHT22;38422;53.172;6.974;2024-03-02T00:09:00;7.30;99.90
52513;DHT22;38422;53.172;6.974;2024-03-02T00:11:26;7.30;99.90
52513;DHT22;38422;53.172;6.974;2024-03-02T00:13:53;7.30;99.90
52513;DHT22;38422;53.172;6.974;2024-03-02T00:16:19;7.30;99.90
52513;DHT22;38422;53.172;6.974;2024-03-02T00:18:45;7.30;99.90
52513;DHT22;38422;53.172;6.974;2024-03-02T00:21:11;7.30;99.90
52513;DHT22;38422;53.172;6.974;2024-03-02T00:23:38;7.30;99.90
52513;DHT22;38422;53.172;6.974;2024-03-02T00:26:05;7.30;99.90
52513;DHT22;38422;53.172;6.974;2024-03-02T00:28:33;7.30;99.90
52513;DHT22;38422;53.172;6.974;2024-03-02T00:31:12;7.30;99.90
52513;DHT22;38422;53.172;6.974;2024-03-02T00:33:48;7.30;99.90
52513;DHT22;38422;53.172;6.974;2024-03-02T00:36:25;7.30;99.90
52513;DHT22;38422;53.172;6.974;2024-03-02T00:38:54;7.30;99.90
52513;DHT22;38422;53.172;6.974;2024-03-02T00:41:30;7.30;99.90
52513;DHT22;38422;53.172;6.974;2024-03-02T00:44:07;7.30;99.90
52513;DHT22;38422;53.172;6.974;2024-03-02T00:46:36;7.40;99.90
52513;DHT22;38422;53.172;6.974;2024-03-02T00:49:04;7.40;99.90
52513;DHT22;38422;53.172;6.974;2024-03-02T00:51:32;7.40;99.90
52513;DHT22;38422;53.172;6.974;2024-03-02T00:54:04;7.40;99.90
52513;DHT22;38422;53.172;6.974;2024-03-02T00:56:31;7.40;99.90
52513;DHT22;38422;53.172;6.974;2024-03-02T00:58:57;7.40;99.90
52513;DHT22;38422;53.172;6.974;2024-03-02T01:01:23;7.40;99.90
52513;DHT22;38422;53.172;6.974;2024-03-02T01:03:49;7.40;99.90
52513;DHT22;38422;53.172;6.974;2024-03-02T01:06:16;7.40;99.90
52513;DHT22;38422;53.172;6.974;2024-03-02T01:08:42;7.40;99.90
52513;DHT22;38422;53.172;6.974;2024-03-02T01:11:08;7.40;99.90
52513;DHT22;38422;53.172;6.974;2024-03-02T01:13:35;7.40;99.90
52513;DHT22;38422;53.172;6.974;2024-03-02T01:16:01;7.40;99.90
52513;DHT22;38422;53.172;6.974;2024-03-02T01:18:27;7.40;99.90
52513;DHT22;38422;53.172;6.974;2024-03-02T01:20:53;7.40;99.90
52513;DHT22;38422;53.172;6.974;2024-03-02T01:23:22;7.40;99.90
52513;DHT22;38422;53.172;6.974;2024-03-02T01:25:47;7.50;99.90
52513;DHT22;38422;53.172;6.974;2024-03-02T01:28:14;7.50;99.90
52513;DHT22;38422;53.172;6.974;2024-03-02T01:30:40;7.50;99.90
52513;DHT22;38422;53.172;6.974;2024-03-02T01:33:05;7.50;99.90
52513;DHT22;38422;53.172;6.974;2024-03-02T01:35:32;7.50;99.90
52513;DHT22;38422;53.172;6.974;2024-03-02T01:37:58;7.50;99.90
52513;DHT22;38422;53.172;6.974;2024-03-02T01:40:24;7.40;99.90
52513;DHT22;38422;53.172;6.974;2024-03-02T01:42:55;7.50;99.90
52513;DHT22;38422;53.172;6.974;2024-03-02T01:45:23;7.50;99.90
52513;DHT22;38422;53.172;6.974;2024-03-02T01:47:49;7.50;99.90
52513;DHT22;38422;53.172;6.974;2024-03-02T01:50:15;7.50;99.90
52513;DHT22;38422;53.172;6.974;2024-03-02T01:52:41;7.40;99.90
52513;DHT22;38422;53.172;6.974;2024-03-02T01:55:07;7.50;99.90
52513;DHT22;38422;53.172;6.974;2024-03-02T01:57:34;7.50;99.90
52513;DHT22;38422;53.172;6.974;2024-03-02T02:00:00;7.50;99.90
52513;DHT22;38422;53.172;6.974;2024-03-02T02:02:26;7.50;99.90
52513;DHT22;38422;53.172;6.974;2024-03-02T02:04:52;7.50;99.90
52513;DHT22;38422;53.172;6.974;2024-03-02T02:07:17;7.50;99.90
52513;DHT22;38422;53.172;6.974;2024-03-02T02:09:43;7.50;99.90
52513;DHT22;38422;53.172;6.974;2024-03-02T02:12:09;7.60;99.90
52513;DHT22;38422;53.172;6.974;2024-03-02T02:14:36;7.60;99.90
52513;DHT22;38422;53.172;6.974;2024-03-02T02:17:02;7.60;99.90
52513;DHT22;38422;53.172;6.974;2024-03-02T02:19:28;7.60;99.90
52513;DHT22;38422;53.172;6.974;2024-03-02T02:21:54;7.70;99.90
52513;DHT22;38422;53.172;6.974;2024-03-02T02:24:20;7.70;99.90
52513;DHT22;38422;53.172;6.974;2024-03-02T02:26:46;7.70;99.90
52513;DHT22;38422;53.172;6.974;2024-03-02T02:29:11;7.70;99.90
52513;DHT22;38422;53.172;6.974;2024-03-02T02:31:41;7.70;99.90
52513;DHT22;38422;53.172;6.974;2024-03-02T02:34:07;7.70;99.90
52513;DHT22;38422;53.172;6.974;2024-03-02T02:36:34;7.70;99.90
52513;DHT22;38422;53.172;6.974;2024-03-02T02:39:03;7.70;99.90
52513;DHT22;38422;53.172;6.974;2024-03-02T02:41:29;7.70;99.90
52513;DHT22;38422;53.172;6.974;2024-03-02T02:43:55;7.70;99.90
52513;DHT22;38422;53.172;6.974;2024-03-02T02:46:21;7.70;99.90
52513;DHT22;38422;53.172;6.974;2024-03-02T02:48:47;7.70;99.90
52513;DHT22;38422;53.172;6.974;2024-03-02T02:51:12;7.70;99.90
52513;DHT22;38422;53.172;6.974;2024-03-02T02:53:38;7.70;99.90
52513;DHT22;38422;53.172;6.974;2024-03-02T02:56:09;7.70;99.90
52513;DHT22;38422;53.172;6.974;2024-03-02T02:58:34;7.70;99.90
52513;DHT22;38422;53.172;6.974;2024-03-02T03:01:01;7.70;99.90
52513;DHT22;38422;53.172;6.974;2024-03-02T03:03:27;7.70;99.90
52513;DHT22;38422;53.172;6.974;2024-03-02T03:05:52;7.70;99.90
52513;DHT22;38422;53.172;6.974;2024-03-02T03:08:18;7.70;99.90
52513;DHT22;38422;53.172;6.974;2024-03-02T03:10:44;7.70;99.90
52513;DHT22;38422;53.172;6.974;2024-03-02T03:13:10;7.80;99.90
52513;DHT22;38422;53.172;6.974;2024-03-02T03:15:36;7.80;99.90
52513;DHT22;38422;53.172;6.974;2024-03-02T03:18:05;7.80;99.90
52513;DHT22;38422;53.172;6.974;2024-03-02T03:20:31;7.80;99.90
52513;DHT22;38422;53.172;6.974;2024-03-02T03:22:57;7.80;99.90
52513;DHT22;38422;53.172;6.974;2024-03-02T03:25:23;7.80;99.90
52513;DHT22;38422;53.172;6.974;2024-03-02T03:27:49;7.80;99.90
52513;DHT22;38422;53.172;6.974;2024-03-02T03:30:14;7.80;99.90
52513;DHT22;38422;53.172;6.974;2024-03-02T03:32:40;7.80;99.90
52513;DHT22;38422;53.172;6.974;2024-03-02T03:35:06;7.80;99.90
52513;DHT22;38422;53.172;6.974;2024-03-02T03:37:32;7.80;99.90
52513;DHT22;38422;53.172;6.974;2024-03-02T03:40:05;7.80;99.90
52513;DHT22;38422;53.172;6.974;2024-03-02T03:42:37;7.80;99.90
52513;DHT22;38422;53.172;6.974;2024-03-02T03:45:04;7.80;99.90
52513;DHT22;38422;53.172;6.974;2024-03-02T03:47:31;7.80;99.90
52513;DHT22;38422;53.172;6.974;2024-03-02T03:49:57;7.80;99.90
52513;DHT22;38422;53.172;6.974;2024-03-02T03:52:23;7.90;99.90
52513;DHT22;38422;53.172;6.974;2024-03-02T03:54:49;7.80;99.90
52513;DHT22;38422;53.172;6.974;2024-03-02T03:57:15;7.80;99.90
52513;DHT22;38422;53.172;6.974;2024-03-02T03:59:46;7.90;99.90
52513;DHT22;38422;53.172;6.974;2024-03-02T04:02:12;7.80;99.90
52513;DHT22;38422;53.172;6.974;2024-03-02T04:04:38;7.90;99.90
52513;DHT22;38422;53.172;6.974;2024-03-02T04:07:04;7.80;99.90
52513;DHT22;38422;53.172;6.974;2024-03-02T04:09:29;7.80;99.90
52513;DHT22;38422;53.172;6.974;2024-03-02T04:11:55;7.80;99.90
52513;DHT22;38422;53.172;6.974;2024-03-02T04:14:21;7.80;99.90
52513;DHT22;38422;53.172;6.974;2024-03-02T04:16:48;7.70;99.90
52513;DHT22;38422;53.172;6.974;2024-03-02T04:19:14;7.70;99.90
52513;DHT22;38422;53.172;6.974;2024-03-02T04:21:39;7.70;99.90
52513;DHT22;38422;53.172;6.974;2024-03-02T04:24:05;7.70;99.90
52513;DHT22;38422;53.172;6.974;2024-03-02T04:26:31;7.60;99.90
52513;DHT22;38422;53.172;6.974;2024-03-02T04:28:56;7.60;99.90
52513;DHT22;38422;53.172;6.974;2024-03-02T04:31:22;7.50;99.90
52513;DHT22;38422;53.172;6.974;2024-03-02T04:33:47;7.50;99.90
52513;DHT22;38422;53.172;6.974;2024-03-02T04:36:13;7.50;99.90
52513;DHT22;38422;53.172;6.974;2024-03-02T04:38:39;7.50;99.90
52513;DHT22;38422;53.172;6.974;2024-03-02T04:41:05;7.40;99.90
52513;DHT22;38422;53.172;6.974;2024-03-02T04:43:34;7.40;99.90
52513;DHT22;38422;53.172;6.974;2024-03-02T04:46:01;7.40;99.90
52513;DHT22;38422;53.172;6.974;2024-03-02T04:48:26;7.30;99.90
52513;DHT22;38422;53.172;6.974;2024-03-02T04:50:52;7.30;99.90
52513;DHT22;38422;53.172;6.974;2024-03-02T04:53:18;7.30;99.90
52513;DHT22;38422;53.172;6.974;2024-03-02T04:55:44;7.30;99.90
52513;DHT22;38422;53.172;6.974;2024-03-02T04:58:10;7.20;99.90
52513;DHT22;38422;53.172;6.974;2024-03-02T05:00:35;7.20;99.90
52513;DHT22;38422;53.172;6.974;2024-03-02T05:03:02;7.20;99.90
52513;DHT22;38422;53.172;6.974;2024-03-02T05:05:28;7.20;99.90
52513;DHT22;38422;53.172;6.974;2024-03-02T05:07:53;7.20;99.90
52513;DHT22;38422;53.172;6.974;2024-03-02T05:10:19;7.20;99.90
52513;DHT22;38422;53.172;6.974;2024-03-02T05:12:45;7.20;99.90
52513;DHT22;38422;53.172;6.974;2024-03-02T05:15:12;7.20;99.90
52513;DHT22;38422;53.172;6.974;2024-03-02T05:17:39;7.20;99.90
52513;DHT22;38422;53.172;6.974;2024-03-02T05:20:09;7.20;99.90
52513;DHT22;38422;53.172;6.974;2024-03-02T05:22:35;7.20;99.90
52513;DHT22;38422;53.172;6.974;2024-03-02T05:25:02;7.20;99.90
52513;DHT22;38422;53.172;6.974;2024-03-02T05:27:28;7.30;99.90
52513;DHT22;38422;53.172;6.974;2024-03-02T05:29:53;7.30;99.90
52513;DHT22;38422;53.172;6.974;2024-03-02T05:32:19;7.30;99.90
52513;DHT22;38422;53.172;6.974;2024-03-02T05:34:45;7.30;99.90
52513;DHT22;38422;53.172;6.974;2024-03-02T05:37:10;7.40;99.90
52513;DHT22;38422;53.172;6.974;2024-03-02T05:39:36;7.30;99.90
52513;DHT22;38422;53.172;6.974;2024-03-02T05:42:02;7.40;99.90
52513;DHT22;38422;53.172;6.974;2024-03-02T05:44:28;7.40;99.90
52513;DHT22;38422;53.172;6.974;2024-03-02T05:46:55;7.40;99.90
52513;DHT22;38422;53.172;6.974;2024-03-02T05:49:20;7.40;99.90
52513;DHT22;38422;53.172;6.974;2024-03-02T05:51:46;7.40;99.90
52513;DHT22;38422;53.172;6.974;2024-03-02T05:54:12;7.30;99.90
52513;DHT22;38422;53.172;6.974;2024-03-02T05:56:38;7.30;99.90
52513;DHT22;38422;53.172;6.974;2024-03-02T05:59:03;7.30;99.90
52513;DHT22;38422;53.172;6.974;2024-03-02T06:01:47;7.30;99.90
52513;DHT22;38422;53.172;6.974;2024-03-02T06:04:14;7.20;99.90
52513;DHT22;38422;53.172;6.974;2024-03-02T06:06:40;7.20;99.90
52513;DHT22;38422;53.172;6.974;2024-03-02T06:09:07;7.20;99.90
52513;DHT22;38422;53.172;6.974;2024-03-02T06:11:40;7.10;99.90
52513;DHT22;38422;53.172;6.974;2024-03-02T06:14:06;7.10;99.90
52513;DHT22;38422;53.172;6.974;2024-03-02T06:16:32;7.10;99.90
52513;DHT22;38422;53.172;6.974;2024-03-02T06:18:58;7.10;99.90
52513;DHT22;38422;53.172;6.974;2024-03-02T06:21:28;7.10;99.90
52513;DHT22;38422;53.172;6.974;2024-03-02T06:23:54;7.10;99.90
52513;DHT22;38422;53.172;6.974;2024-03-02T06:26:20;7.10;99.90
52513;DHT22;38422;53.172;6.974;2024-03-02T06:28:46;7.10;99.90
52513;DHT22;38422;53.172;6.974;2024-03-02T06:31:11;7.20;99.90
52513;DHT22;38422;53.172;6.974;2024-03-02T06:33:37;7.20;99.90
52513;DHT22;38422;53.172;6.974;2024-03-02T06:36:04;7.20;99.90
52513;DHT22;38422;53.172;6.974;2024-03-02T06:38:30;7.20;99.90
52513;DHT22;38422;53.172;6.974;2024-03-02T06:40:57;7.20;99.90
52513;DHT22;38422;53.172;6.974;2024-03-02T06:43:23;7.20;99.90
52513;DHT22;38422;53.172;6.974;2024-03-02T06:45:52;7.20;99.90
52513;DHT22;38422;53.172;6.974;2024-03-02T06:48:18;7.20;99.90
52513;DHT22;38422;53.172;6.974;2024-03-02T06:50:49;7.20;99.90
52513;DHT22;38422;53.172;6.974;2024-03-02T06:53:16;7.20;99.90
52513;DHT22;38422;53.172;6.974;2024-03-02T06:55:45;7.10;99.90
52513;DHT22;38422;53.172;6.974;2024-03-02T06:58:15;7.10;99.90
52513;DHT22;38422;53.172;6.974;2024-03-02T07:00:44;7.10;99.90
52513;DHT22;38422;53.172;6.974;2024-03-02T07:03:10;7.20;99.90
52513;DHT22;38422;53.172;6.974;2024-03-02T07:05:35;7.20;99.90
52513;DHT22;38422;53.172;6.974;2024-03-02T07:08:01;7.20;99.90
52513;DHT22;38422;53.172;6.974;2024-03-02T07:10:28;7.20;99.90
52513;DHT22;38422;53.172;6.974;2024-03-02T07:12:53;7.20;99.90
52513;DHT22;38422;53.172;6.974;2024-03-02T07:15:19;7.20;99.90
52513;DHT22;38422;53.172;6.974;2024-03-02T07:17:54;7.20;99.90
52513;DHT22;38422;53.172;6.974;2024-03-02T07:20:19;7.10;99.90
52513;DHT22;38422;53.172;6.974;2024-03-02T07:22:45;7.10;99.90
52513;DHT22;38422;53.172;6.974;2024-03-02T07:25:11;7.10;99.90
52513;DHT22;38422;53.172;6.974;2024-03-02T07:27:37;7.10;99.90
52513;DHT22;38422;53.172;6.974;2024-03-02T07:30:03;7.10;99.90
52513;DHT22;38422;53.172;6.974;2024-03-02T07:32:29;7.20;99.90
52513;DHT22;38422;53.172;6.974;2024-03-02T07:34:55;7.20;99.90
52513;DHT22;38422;53.172;6.974;2024-03-02T07:37:22;7.30;99.90
52513;DHT22;38422;53.172;6.974;2024-03-02T07:39:48;7.30;99.90
52513;DHT22;38422;53.172;6.974;2024-03-02T07:42:13;7.30;99.90
52513;DHT22;38422;53.172;6.974;2024-03-02T07:44:39;7.30;99.90
52513;DHT22;38422;53.172;6.974;2024-03-02T07:47:05;7.40;99.90
52513;DHT22;38422;53.172;6.974;2024-03-02T07:49:34;7.40;99.90
52513;DHT22;38422;53.172;6.974;2024-03-02T07:52:00;7.40;99.90
52513;DHT22;38422;53.172;6.974;2024-03-02T07:54:26;7.40;99.90
52513;DHT22;38422;53.172;6.974;2024-03-02T07:56:51;7.40;99.90
52513;DHT22;38422;53.172;6.974;2024-03-02T07:59:17;7.50;99.90
52513;DHT22;38422;53.172;6.974;2024-03-02T08:01:43;7.40;99.90
52513;DHT22;38422;53.172;6.974;2024-03-02T08:04:09;7.50;99.90
52513;DHT22;38422;53.172;6.974;2024-03-02T08:06:34;7.50;99.90
52513;DHT22;38422;53.172;6.974;2024-03-02T08:09:01;7.50;99.90
52513;DHT22;38422;53.172;6.974;2024-03-02T08:11:27;7.60;99.90
52513;DHT22;38422;53.172;6.974;2024-03-02T08:13:54;7.60;99.90
52513;DHT22;38422;53.172;6.974;2024-03-02T08:16:21;7.70;99.90
52513;DHT22;38422;53.172;6.974;2024-03-02T08:18:48;7.70;99.90
52513;DHT22;38422;53.172;6.974;2024-03-02T08:21:14;7.70;99.90
52513;DHT22;38422;53.172;6.974;2024-03-02T08:23:40;7.70;99.90
52513;DHT22;38422;53.172;6.974;2024-03-02T08:26:08;7.70;99.90
52513;DHT22;38422;53.172;6.974;2024-03-02T08:28:34;7.70;99.90
52513;DHT22;38422;53.172;6.974;2024-03-02T08:31:00;7.80;99.90
52513;DHT22;38422;53.172;6.974;2024-03-02T08:33:25;7.90;99.90
52513;DHT22;38422;53.172;6.974;2024-03-02T08:35:51;7.90;99.90
52513;DHT22;38422;53.172;6.974;2024-03-02T08:38:17;7.90;99.90
52513;DHT22;38422;53.172;6.974;2024-03-02T08:40:44;8.00;99.90
52513;DHT22;38422;53.172;6.974;2024-03-02T08:43:09;8.10;99.90
52513;DHT22;38422;53.172;6.974;2024-03-02T08:45:35;8.20;99.90
52513;DHT22;38422;53.172;6.974;2024-03-02T08:48:01;8.20;99.90
52513;DHT22;38422;53.172;6.974;2024-03-02T08:50:27;8.30;99.90
52513;DHT22;38422;53.172;6.974;2024-03-02T08:52:54;8.30;99.90
52513;DHT22;38422;53.172;6.974;2024-03-02T08:55:19;8.30;99.90
52513;DHT22;38422;53.172;6.974;2024-03-02T08:57:45;8.40;99.90
52513;DHT22;38422;53.172;6.974;2024-03-02T09:00:11;8.40;99.90
52513;DHT22;38422;53.172;6.974;2024-03-02T09:02:37;8.50;99.90
52513;DHT22;38422;53.172;6.974;2024-03-02T09:05:04;8.50;99.90
52513;DHT22;38422;53.172;6.974;2024-03-02T09:07:30;8.60;99.90
52513;DHT22;38422;53.172;6.974;2024-03-02T09:09:56;8.60;99.90
52513;DHT22;38422;53.172;6.974;2024-03-02T09:12:22;8.70;99.90
52513;DHT22;38422;53.172;6.974;2024-03-02T09:14:47;8.70;99.90
52513;DHT22;38422;53.172;6.974;2024-03-02T09:17:13;8.80;99.90
52513;DHT22;38422;53.172;6.974;2024-03-02T09:19:39;8.80;99.90
52513;DHT22;38422;53.172;6.974;2024-03-02T09:22:05;8.90;99.90
52513;DHT22;38422;53.172;6.974;2024-03-02T09:24:31;9.00;99.90
52513;DHT22;38422;53.172;6.974;2024-03-02T09:26:59;9.00;99.90
52513;DHT22;38422;53.172;6.974;2024-03-02T09:29:24;9.10;99.90
52513;DHT22;38422;53.172;6.974;2024-03-02T09:31:50;9.20;99.90
52513;DHT22;38422;53.172;6.974;2024-03-02T09:34:16;9.30;99.90
52513;DHT22;38422;53.172;6.974;2024-03-02T09:36:42;9.30;99.90
52513;DHT22;38422;53.172;6.974;2024-03-02T09:39:09;9.30;99.90
52513;DHT22;38422;53.172;6.974;2024-03-02T09:41:37;9.30;99.90
52513;DHT22;38422;53.172;6.974;2024-03-02T09:44:04;9.40;99.90
52513;DHT22;38422;53.172;6.974;2024-03-02T09:46:30;9.50;99.90
52513;DHT22;38422;53.172;6.974;2024-03-02T09:48:56;9.70;99.90
52513;DHT22;38422;53.172;6.974;2024-03-02T09:51:22;9.80;99.90
52513;DHT22;38422;53.172;6.974;2024-03-02T09:53:48;9.90;99.90
52513;DHT22;38422;53.172;6.974;2024-03-02T09:56:15;10.10;99.90
52513;DHT22;38422;53.172;6.974;2024-03-02T09:58:44;10.30;99.90
52513;DHT22;38422;53.172;6.974;2024-03-02T10:01:10;10.40;99.90
52513;DHT22;38422;53.172;6.974;2024-03-02T10:03:37;10.60;99.90
52513;DHT22;38422;53.172;6.974;2024-03-02T10:06:38;10.70;99.90
52513;DHT22;38422;53.172;6.974;2024-03-02T10:09:04;10.90;99.90
52513;DHT22;38422;53.172;6.974;2024-03-02T10:11:32;11.00;99.90
52513;DHT22;38422;53.172;6.974;2024-03-02T10:14:09;11.20;99.90
52513;DHT22;38422;53.172;6.974;2024-03-02T10:16:43;11.30;99.90
52513;DHT22;38422;53.172;6.974;2024-03-02T10:21:51;11.60;99.90
52513;DHT22;38422;53.172;6.974;2024-03-02T10:24:22;11.70;99.90
52513;DHT22;38422;53.172;6.974;2024-03-02T10:26:48;11.80;99.90
52513;DHT22;38422;53.172;6.974;2024-03-02T10:29:14;11.80;99.90
52513;DHT22;38422;53.172;6.974;2024-03-02T10:31:44;11.90;99.90
52513;DHT22;38422;53.172;6.974;2024-03-02T10:34:11;12.00;99.90
52513;DHT22;38422;53.172;6.974;2024-03-02T10:36:40;12.00;99.90
52513;DHT22;38422;53.172;6.974;2024-03-02T10:39:07;12.00;99.90
52513;DHT22;38422;53.172;6.974;2024-03-02T10:41:37;12.10;99.90
52513;DHT22;38422;53.172;6.974;2024-03-02T10:44:05;12.10;99.90
52513;DHT22;38422;53.172;6.974;2024-03-02T10:46:32;12.20;99.90
52513;DHT22;38422;53.172;6.974;2024-03-02T10:48:59;12.20;99.90
52513;DHT22;38422;53.172;6.974;2024-03-02T10:51:32;12.30;99.90
52513;DHT22;38422;53.172;6.974;2024-03-02T10:53:59;12.40;99.90
52513;DHT22;38422;53.172;6.974;2024-03-02T10:56:31;12.50;99.90
52513;DHT22;38422;53.172;6.974;2024-03-02T11:01:50;12.50;99.90
52513;DHT22;38422;53.172;6.974;2024-03-02T11:04:18;12.40;99.90
52513;DHT22;38422;53.172;6.974;2024-03-02T11:06:48;12.30;99.90
52513;DHT22;38422;53.172;6.974;2024-03-02T11:09:15;12.10;99.90
52513;DHT22;38422;53.172;6.974;2024-03-02T11:11:43;12.00;99.90
52513;DHT22;38422;53.172;6.974;2024-03-02T11:14:16;12.20;99.90
52513;DHT22;38422;53.172;6.974;2024-03-02T11:16:42;12.40;99.90
52513;DHT22;38422;53.172;6.974;2024-03-02T11:19:13;12.70;99.90
52513;DHT22;38422;53.172;6.974;2024-03-02T11:21:40;12.90;99.90
52513;DHT22;38422;53.172;6.974;2024-03-02T11:26:50;13.20;99.90
52513;DHT22;38422;53.172;6.974;2024-03-02T11:32:21;13.40;99.90
52513;DHT22;38422;53.172;6.974;2024-03-02T11:34:50;13.60;99.90
52513;DHT22;38422;53.172;6.974;2024-03-02T11:37:17;13.80;99.90
52513;DHT22;38422;53.172;6.974;2024-03-02T11:39:44;13.80;99.90
52513;DHT22;38422;53.172;6.974;2024-03-02T11:42:11;13.80;99.90
52513;DHT22;38422;53.172;6.974;2024-03-02T11:44:38;13.80;99.90
52513;DHT22;38422;53.172;6.974;2024-03-02T11:47:08;13.90;99.90
52513;DHT22;38422;53.172;6.974;2024-03-02T11:49:45;13.90;99.90
52513;DHT22;38422;53.172;6.974;2024-03-02T11:52:12;14.10;99.90
52513;DHT22;38422;53.172;6.974;2024-03-02T11:54:40;14.20;99.90
52513;DHT22;38422;53.172;6.974;2024-03-02T11:57:12;14.40;99.90
52513;DHT22;38422;53.172;6.974;2024-03-02T11:59:38;14.60;99.90
52513;DHT22;38422;53.172;6.974;2024-03-02T12:02:04;14.60;99.90
52513;DHT22;38422;53.172;6.974;2024-03-02T12:04:30;14.60;99.90
52513;DHT22;38422;53.172;6.974;2024-03-02T12:07:00;14.60;99.90
52513;DHT22;38422;53.172;6.974;2024-03-02T12:09:29;14.70;99.90
52513;DHT22;38422;53.172;6.974;2024-03-02T12:12:05;14.80;99.90
52513;DHT22;38422;53.172;6.974;2024-03-02T12:14:32;14.90;99.90
52513;DHT22;38422;53.172;6.974;2024-03-02T12:16:58;15.00;99.90
52513;DHT22;38422;53.172;6.974;2024-03-02T12:19:25;14.90;99.90
52513;DHT22;38422;53.172;6.974;2024-03-02T12:21:51;14.90;99.90
52513;DHT22;38422;53.172;6.974;2024-03-02T12:24:17;15.00;99.90
52513;DHT22;38422;53.172;6.974;2024-03-02T12:26:43;15.10;99.90
52513;DHT22;38422;53.172;6.974;2024-03-02T12:29:10;15.30;99.90
52513;DHT22;38422;53.172;6.974;2024-03-02T12:31:36;15.40;99.90
52513;DHT22;38422;53.172;6.974;2024-03-02T12:34:03;15.30;99.90
52513;DHT22;38422;53.172;6.974;2024-03-02T12:36:28;15.30;99.90
52513;DHT22;38422;53.172;6.974;2024-03-02T12:38:54;15.40;99.90
52513;DHT22;38422;53.172;6.974;2024-03-02T12:41:21;15.40;99.90
52513;DHT22;38422;53.172;6.974;2024-03-02T12:43:46;15.30;99.90
52513;DHT22;38422;53.172;6.974;2024-03-02T12:46:12;15.00;99.90
52513;DHT22;38422;53.172;6.974;2024-03-02T12:48:38;15.10;99.90
52513;DHT22;38422;53.172;6.974;2024-03-02T12:51:06;15.20;99.90
52513;DHT22;38422;53.172;6.974;2024-03-02T12:53:32;15.30;99.90
52513;DHT22;38422;53.172;6.974;2024-03-02T12:55:58;15.10;99.90
52513;DHT22;38422;53.172;6.974;2024-03-02T12:58:24;14.90;99.90
52513;DHT22;38422;53.172;6.974;2024-03-02T13:01:06;14.80;99.90
52513;DHT22;38422;53.172;6.974;2024-03-02T13:03:38;14.70;99.90
52513;DHT22;38422;53.172;6.974;2024-03-02T13:06:05;14.60;99.90
52513;DHT22;38422;53.172;6.974;2024-03-02T13:08:33;14.60;99.90
52513;DHT22;38422;53.172;6.974;2024-03-02T13:10:59;14.70;99.90
52513;DHT22;38422;53.172;6.974;2024-03-02T13:13:25;14.80;99.90
52513;DHT22;38422;53.172;6.974;2024-03-02T13:15:55;14.80;99.90
52513;DHT22;38422;53.172;6.974;2024-03-02T13:18:22;14.80;99.90
52513;DHT22;38422;53.172;6.974;2024-03-02T13:20:48;14.90;99.90
52513;DHT22;38422;53.172;6.974;2024-03-02T13:23:13;15.00;99.90
52513;DHT22;38422;53.172;6.974;2024-03-02T13:25:39;15.20;99.90
52513;DHT22;38422;53.172;6.974;2024-03-02T13:28:06;15.20;99.90
52513;DHT22;38422;53.172;6.974;2024-03-02T13:30:32;15.10;99.90
52513;DHT22;38422;53.172;6.974;2024-03-02T13:32:58;15.10;99.90
52513;DHT22;38422;53.172;6.974;2024-03-02T13:35:24;15.20;99.90
52513;DHT22;38422;53.172;6.974;2024-03-02T13:37:50;15.20;99.90
52513;DHT22;38422;53.172;6.974;2024-03-02T13:40:16;15.40;99.90
52513;DHT22;38422;53.172;6.974;2024-03-02T13:42:48;15.50;99.90
52513;DHT22;38422;53.172;6.974;2024-03-02T13:45:19;15.80;99.90
52513;DHT22;38422;53.172;6.974;2024-03-02T13:47:47;16.00;99.90
52513;DHT22;38422;53.172;6.974;2024-03-02T13:50:13;16.10;99.90
52513;DHT22;38422;53.172;6.974;2024-03-02T13:52:41;15.90;98.90
52513;DHT22;38422;53.172;6.974;2024-03-02T13:55:10;15.70;99.20
52513;DHT22;38422;53.172;6.974;2024-03-02T13:57:35;15.50;99.90
52513;DHT22;38422;53.172;6.974;2024-03-02T14:00:01;15.30;99.90
52513;DHT22;38422;53.172;6.974;2024-03-02T14:02:28;15.20;99.70
52513;DHT22;38422;53.172;6.974;2024-03-02T14:04:54;15.20;99.90
52513;DHT22;38422;53.172;6.974;2024-03-02T14:07:20;15.10;99.90
52513;DHT22;38422;53.172;6.974;2024-03-02T14:09:46;15.00;99.90
52513;DHT22;38422;53.172;6.974;2024-03-02T14:12:12;14.90;99.90
52513;DHT22;38422;53.172;6.974;2024-03-02T14:14:39;15.00;99.90
52513;DHT22;38422;53.172;6.974;2024-03-02T14:17:04;15.10;99.90
52513;DHT22;38422;53.172;6.974;2024-03-02T14:19:31;15.10;99.90
52513;DHT22;38422;53.172;6.974;2024-03-02T14:21:58;15.10;99.90
52513;DHT22;38422;53.172;6.974;2024-03-02T14:24:24;15.10;99.90
52513;DHT22;38422;53.172;6.974;2024-03-02T14:26:52;15.20;99.90
52513;DHT22;38422;53.172;6.974;2024-03-02T14:29:18;15.00;99.30
52513;DHT22;38422;53.172;6.974;2024-03-02T14:31:44;15.10;99.90
52513;DHT22;38422;53.172;6.974;2024-03-02T14:34:16;15.10;99.60
52513;DHT22;38422;53.172;6.974;2024-03-02T14:36:42;15.20;99.90
52513;DHT22;38422;53.172;6.974;2024-03-02T14:39:10;15.10;99.90
52513;DHT22;38422;53.172;6.974;2024-03-02T14:41:39;15.00;99.60
52513;DHT22;38422;53.172;6.974;2024-03-02T14:44:04;14.80;99.80
52513;DHT22;38422;53.172;6.974;2024-03-02T14:46:31;14.70;99.90
52513;DHT22;38422;53.172;6.974;2024-03-02T14:48:57;14.70;99.90
52513;DHT22;38422;53.172;6.974;2024-03-02T14:51:23;14.60;99.90
52513;DHT22;38422;53.172;6.974;2024-03-02T14:53:51;14.60;99.90
52513;DHT22;38422;53.172;6.974;2024-03-02T14:56:17;14.50;99.90
52513;DHT22;38422;53.172;6.974;2024-03-02T14:58:42;14.50;99.90
52513;DHT22;38422;53.172;6.974;2024-03-02T15:01:08;14.30;99.90
52513;DHT22;38422;53.172;6.974;2024-03-02T15:03:37;14.20;99.90
52513;DHT22;38422;53.172;6.974;2024-03-02T15:06:03;14.10;99.90
52513;DHT22;38422;53.172;6.974;2024-03-02T15:08:30;14.10;99.90
52513;DHT22;38422;53.172;6.974;2024-03-02T15:10:55;14.00;99.90
52513;DHT22;38422;53.172;6.974;2024-03-02T15:13:22;13.90;99.90
52513;DHT22;38422;53.172;6.974;2024-03-02T15:15:48;13.90;99.90
52513;DHT22;38422;53.172;6.974;2024-03-02T15:18:14;13.90;99.90
52513;DHT22;38422;53.172;6.974;2024-03-02T15:20:40;13.90;99.90
52513;DHT22;38422;53.172;6.974;2024-03-02T15:23:06;14.00;99.90
52513;DHT22;38422;53.172;6.974;2024-03-02T15:25:32;14.10;99.90
52513;DHT22;38422;53.172;6.974;2024-03-02T15:27:57;14.30;99.90
52513;DHT22;38422;53.172;6.974;2024-03-02T15:30:23;14.20;99.90
52513;DHT22;38422;53.172;6.974;2024-03-02T15:32:49;14.30;99.90
52513;DHT22;38422;53.172;6.974;2024-03-02T15:35:14;14.40;99.90
52513;DHT22;38422;53.172;6.974;2024-03-02T15:37:40;14.50;99.90
52513;DHT22;38422;53.172;6.974;2024-03-02T15:40:06;14.60;99.90
52513;DHT22;38422;53.172;6.974;2024-03-02T15:42:34;14.60;99.90
52513;DHT22;38422;53.172;6.974;2024-03-02T15:45:00;14.60;99.90
52513;DHT22;38422;53.172;6.974;2024-03-02T15:47:26;14.60;99.90
52513;DHT22;38422;53.172;6.974;2024-03-02T15:49:52;14.50;99.90